KOGD/OGD METAR and TAF weather

Enter ICAO airport designator
Station Type Date Time Source
KOGD METAR 2022/11/30 10:53 UTC NOAA

KOGD 301053Z AUTO 17007KT 10SM FEW065 OVC080 M05/M12 A3007 RMK AO2 SLP205 T10501117


Station Type Date Time Source
KOGD Decoded METAR 2022/11/30 10:53 UTC NOAA

OGDEN-HINCKLEY AIRPORT, UT, United States (KOGD) 41-12N 112-01W 1353M
Nov 30, 2022 - 05:53 AM EST / 2022.11.30 1053 UTC
Wind: from the S (170 degrees) at 8 MPH (7 KT):0
Visibility: 10 mile(s):0
Sky conditions: overcast
Temperature: 23.0 F (-5.0 C)
Windchill: 14 F (-10 C):1
Dew Point: 10.9 F (-11.7 C)
Relative Humidity: 59%
Pressure (altimeter): 30.07 in. Hg (1018 hPa)
ob: KOGD 301053Z AUTO 17007KT 10SM FEW065 OVC080 M05/M12 A3007 RMK AO2 SLP205 T10501117
cycle: 11

Station Type Date Time Source
KOGD TAF 2022/11/30 12:22 UTC NOAA

TAF KOGD 301120Z 3012/0112 17007KT P6SM BKN060
FM301400 17009KT P6SM SCT150

Example: see airport list